createdAt,value
2018-12-21T00:01:37.056Z,-0.29
2018-12-21T00:04:04.603Z,-0.11
2018-12-21T00:06:32.135Z,-0.32
2018-12-21T00:08:59.730Z,-0.59
2018-12-21T00:11:27.365Z,-0.65
2018-12-21T00:13:54.948Z,-0.71
2018-12-21T00:16:23.927Z,-0.64
2018-12-21T00:18:51.547Z,-0.40
2018-12-21T00:21:21.899Z,-0.56
2018-12-21T00:23:48.698Z,-0.52
2018-12-21T00:26:16.262Z,-0.46
2018-12-21T00:28:43.850Z,-0.33
2018-12-21T00:31:17.887Z,-0.17
2018-12-21T00:33:51.857Z,-0.15
2018-12-21T00:36:25.964Z,-0.06
2018-12-21T00:38:59.046Z,0.07
2018-12-21T00:41:26.059Z,0.03
2018-12-21T00:43:55.640Z,0.04
2018-12-21T00:46:26.200Z,-0.18
2018-12-21T00:48:54.180Z,-0.17
2018-12-21T00:51:30.031Z,-0.04
2018-12-21T00:53:51.421Z,0.02
2018-12-21T00:56:18.968Z,0.03
2018-12-21T00:58:46.569Z,0.12
2018-12-21T01:01:14.139Z,0.14
2018-12-21T01:03:41.680Z,0.20
2018-12-21T01:06:09.244Z,0.16
2018-12-21T01:08:36.833Z,-0.07
2018-12-21T01:11:04.433Z,-0.08
2018-12-21T01:13:31.981Z,-0.07
2018-12-21T01:16:00.464Z,0.05
2018-12-21T01:18:28.164Z,0.25
2018-12-21T01:20:55.756Z,0.38
2018-12-21T01:23:23.319Z,0.25
2018-12-21T01:25:52.997Z,0.24
2018-12-21T01:28:20.542Z,0.10
2018-12-21T01:30:48.100Z,0.13
2018-12-21T01:33:15.678Z,0.07
2018-12-21T01:35:43.932Z,0.12
2018-12-21T01:38:11.522Z,0.19
2018-12-21T01:40:39.117Z,0.08
2018-12-21T01:43:06.672Z,0.03
2018-12-21T01:45:35.080Z,0.02
2018-12-21T01:48:02.682Z,0.33
2018-12-21T01:50:30.229Z,0.28
2018-12-21T01:52:57.839Z,0.06
2018-12-21T01:55:25.538Z,-0.01
2018-12-21T01:57:53.097Z,-0.11
2018-12-21T02:00:41.880Z,0.07
2018-12-21T02:03:30.059Z,0.02
2018-12-21T02:05:57.793Z,-0.15
2018-12-21T02:08:25.360Z,-0.15
2018-12-21T02:10:52.892Z,-0.08
2018-12-21T02:13:20.477Z,-0.01
2018-12-21T02:15:48.130Z,0.10
2018-12-21T02:18:15.709Z,0.17
2018-12-21T02:20:45.658Z,0.21
2018-12-21T02:26:06.241Z,0.09
2018-12-21T02:28:33.881Z,-0.02
2018-12-21T02:31:03.255Z,0.01
2018-12-21T02:33:30.859Z,0.09
2018-12-21T02:36:39.506Z,0.07
2018-12-21T02:47:44.718Z,-0.25
2018-12-21T02:50:12.269Z,-0.27
2018-12-21T02:52:39.835Z,-0.06
2018-12-21T02:55:07.475Z,-0.10
2018-12-21T02:57:35.043Z,-0.04
2018-12-21T03:00:02.613Z,-0.04
2018-12-21T03:02:31.169Z,0.01
2018-12-21T03:04:58.710Z,-0.11
2018-12-21T03:07:26.260Z,-0.15
2018-12-21T03:09:53.854Z,0.03
2018-12-21T03:12:21.387Z,0.09
2018-12-21T03:14:48.921Z,0.30
2018-12-21T03:17:16.511Z,0.33
2018-12-21T03:19:44.082Z,0.27
2018-12-21T03:22:14.968Z,0.18
2018-12-21T03:24:43.198Z,0.13
2018-12-21T03:27:10.801Z,0.21
2018-12-21T03:29:38.325Z,0.14
2018-12-21T03:32:05.911Z,0.05
2018-12-21T03:34:33.469Z,-0.03
2018-12-21T03:37:01.028Z,0.02
2018-12-21T03:39:28.602Z,-0.09
2018-12-21T03:41:56.147Z,-0.04
2018-12-21T03:44:23.715Z,0.06
2018-12-21T03:46:51.299Z,0.10
2018-12-21T03:49:18.858Z,0.21
2018-12-21T03:51:46.443Z,0.09
2018-12-21T03:54:14.174Z,-0.03
2018-12-21T03:56:41.855Z,-0.35
2018-12-21T03:59:09.397Z,-0.32
2018-12-21T04:01:37.002Z,-0.30
2018-12-21T04:04:04.726Z,-0.61
2018-12-21T04:06:32.333Z,-0.63
2018-12-21T04:08:59.886Z,-0.39
2018-12-21T04:11:27.466Z,-0.56
2018-12-21T04:13:54.997Z,-0.49
2018-12-21T04:16:22.598Z,-0.30
2018-12-21T04:18:50.177Z,-0.23
2018-12-21T04:21:17.986Z,-0.25
2018-12-21T04:23:45.562Z,-0.30
2018-12-21T04:26:13.145Z,-0.41
2018-12-21T04:28:40.701Z,-0.40
2018-12-21T04:31:08.311Z,-0.27
2018-12-21T04:33:35.899Z,-0.13
2018-12-21T04:36:03.472Z,-0.20
2018-12-21T04:38:31.023Z,-0.34
2018-12-21T04:40:58.587Z,-0.17
2018-12-21T04:43:26.134Z,-0.20
2018-12-21T04:45:53.993Z,-0.08
2018-12-21T05:47:09.965Z,-0.26
2018-12-21T05:49:38.159Z,-0.21
2018-12-21T05:52:06.001Z,-0.35
2018-12-21T05:54:33.741Z,-0.31
2018-12-21T05:57:01.397Z,-0.32
2018-12-21T05:59:29.433Z,-0.22
2018-12-21T06:01:57.194Z,-0.09
2018-12-21T06:04:29.001Z,-0.04
2018-12-21T06:06:56.782Z,-0.09
2018-12-21T06:09:24.463Z,-0.28
2018-12-21T06:11:52.076Z,-0.37
2018-12-21T06:14:21.154Z,-0.29
2018-12-21T06:16:48.702Z,-0.15
2018-12-21T06:19:17.393Z,0.11
2018-12-21T06:21:46.116Z,0.02
2018-12-21T06:24:13.769Z,0.17
2018-12-21T06:26:41.445Z,0.26
2018-12-21T06:29:09.143Z,0.28
2018-12-21T06:31:37.297Z,0.27
2018-12-21T06:34:04.928Z,0.17
2018-12-21T06:36:32.672Z,0.00
2018-12-21T06:39:00.308Z,0.07
2018-12-21T06:41:28.803Z,0.25
2018-12-21T06:43:56.412Z,0.31
2018-12-21T06:46:24.046Z,0.26
2018-12-21T06:48:51.645Z,0.31
2018-12-21T06:51:19.236Z,0.28
2018-12-21T06:53:46.825Z,0.18
2018-12-21T06:56:14.394Z,0.33
2018-12-21T06:58:42.100Z,0.39
2018-12-21T07:01:09.685Z,0.38
2018-12-21T07:03:37.259Z,0.35
2018-12-21T07:06:05.682Z,0.45
2018-12-21T07:08:33.234Z,0.48
2018-12-21T07:11:00.848Z,0.40
2018-12-21T07:13:30.455Z,0.35
2018-12-21T07:15:58.131Z,0.49
2018-12-21T07:18:25.895Z,0.54
2018-12-21T07:20:53.514Z,0.80
2018-12-21T07:23:27.061Z,0.88
2018-12-21T07:25:51.745Z,0.92
2018-12-21T07:28:19.986Z,1.03
2018-12-21T07:30:47.992Z,0.89
2018-12-21T07:33:15.773Z,1.09
2018-12-21T07:35:43.371Z,0.93
2018-12-21T07:38:11.076Z,0.84
2018-12-21T07:40:38.687Z,0.81
2018-12-21T07:43:06.709Z,0.59
2018-12-21T07:45:34.332Z,0.93
2018-12-21T07:48:02.048Z,1.31
2018-12-21T07:50:30.929Z,1.37
2018-12-21T07:52:59.417Z,1.22
2018-12-21T07:55:27.609Z,1.26
2018-12-21T07:57:55.228Z,1.15
2018-12-21T08:00:22.899Z,1.20
2018-12-21T08:02:50.538Z,1.13
2018-12-21T08:05:18.889Z,1.22
2018-12-21T08:07:46.584Z,0.93
2018-12-21T08:10:14.393Z,1.10
2018-12-21T08:12:42.260Z,1.15
2018-12-21T08:15:10.322Z,1.21
2018-12-21T08:17:37.893Z,1.23
2018-12-21T08:20:06.505Z,1.35
2018-12-21T08:22:35.093Z,1.51
2018-12-21T08:25:02.708Z,1.86
2018-12-21T08:27:30.337Z,2.03
2018-12-21T08:29:57.917Z,2.01
2018-12-21T08:32:25.517Z,1.99
2018-12-21T08:34:54.279Z,2.01
2018-12-21T08:37:22.883Z,1.91
2018-12-21T08:39:51.599Z,2.14
2018-12-21T08:42:19.447Z,1.75
2018-12-21T08:44:47.129Z,1.81
2018-12-21T08:47:15.768Z,1.96
2018-12-21T08:49:43.322Z,1.83
2018-12-21T08:52:11.220Z,1.98
2018-12-21T08:54:39.055Z,2.17
2018-12-21T08:57:06.823Z,1.80
2018-12-21T08:59:34.440Z,1.79
2018-12-21T09:02:02.044Z,2.07
2018-12-21T09:04:32.368Z,2.30
2018-12-21T09:06:59.485Z,2.24
2018-12-21T09:09:27.103Z,1.99
2018-12-21T09:11:54.732Z,2.03
2018-12-21T09:14:23.089Z,2.19
2018-12-21T09:16:50.778Z,2.30
2018-12-21T09:19:19.401Z,2.53
2018-12-21T09:21:46.989Z,2.72
2018-12-21T09:24:14.711Z,2.73
2018-12-21T09:26:42.290Z,2.81
2018-12-21T09:29:09.844Z,2.94
2018-12-21T09:31:37.697Z,3.13
2018-12-21T09:34:05.387Z,2.81
2018-12-21T09:36:33.523Z,2.21
2018-12-21T09:39:01.176Z,2.05
2018-12-21T09:41:28.748Z,2.03
2018-12-21T09:43:56.981Z,2.06
2018-12-21T09:46:25.398Z,1.74
2018-12-21T09:48:53.786Z,1.92
2018-12-21T09:51:21.528Z,1.98
2018-12-21T09:53:49.141Z,1.98
2018-12-21T09:56:16.810Z,1.98
2018-12-21T09:58:44.471Z,1.83
2018-12-21T10:01:12.951Z,1.89
2018-12-21T10:03:40.561Z,2.19
2018-12-21T10:06:10.128Z,2.50
2018-12-21T10:08:37.786Z,2.65
2018-12-21T10:11:05.370Z,2.34
2018-12-21T10:13:33.787Z,2.22
2018-12-21T10:16:01.339Z,2.35
2018-12-21T10:18:28.924Z,2.19
2018-12-21T10:20:56.457Z,2.24
2018-12-21T10:23:24.069Z,2.34
2018-12-21T10:25:51.604Z,2.44
2018-12-21T10:28:20.124Z,2.61
2018-12-21T10:30:47.652Z,2.28
2018-12-21T10:33:17.019Z,2.66
2018-12-21T10:35:44.767Z,2.88
2018-12-21T10:38:12.375Z,2.98
2018-12-21T10:40:40.060Z,3.08
2018-12-21T10:43:07.683Z,2.88
2018-12-21T10:45:41.631Z,2.71
2018-12-21T10:48:05.113Z,3.16
2018-12-21T10:50:32.874Z,3.20
2018-12-21T10:53:00.479Z,3.14
2018-12-21T10:55:28.919Z,2.79
2018-12-21T10:57:57.221Z,3.12
2018-12-21T11:00:24.890Z,3.31
2018-12-21T11:02:52.497Z,3.30
2018-12-21T11:05:20.190Z,3.40
2018-12-21T11:07:47.856Z,3.44
2018-12-21T11:10:16.426Z,3.33
2018-12-21T11:12:44.121Z,3.66
2018-12-21T11:15:11.685Z,3.82
2018-12-21T11:17:39.328Z,3.51
2018-12-21T11:20:07.259Z,3.53
2018-12-21T11:22:35.606Z,3.41
2018-12-21T11:25:06.522Z,3.43
2018-12-21T11:27:34.086Z,3.17
2018-12-21T11:30:01.764Z,2.99
2018-12-21T11:32:29.401Z,3.13
2018-12-21T11:34:56.971Z,3.36
2018-12-21T11:37:24.633Z,3.74
2018-12-21T11:39:53.059Z,3.41
2018-12-21T11:42:22.007Z,3.65
2018-12-21T11:44:49.641Z,3.57
2018-12-21T11:47:17.477Z,3.63
2018-12-21T11:49:45.131Z,3.19
2018-12-21T11:52:12.702Z,2.74
2018-12-21T11:54:44.143Z,2.97
2018-12-21T11:57:09.850Z,3.11
2018-12-21T11:59:44.677Z,2.77
2018-12-21T12:02:06.977Z,3.36
2018-12-21T12:04:34.534Z,3.68
2018-12-21T12:07:04.238Z,4.26
2018-12-21T12:09:31.792Z,4.58
2018-12-21T12:11:59.444Z,4.46
2018-12-21T12:14:27.077Z,4.47
2018-12-21T12:16:58.739Z,4.35
2018-12-21T12:19:26.779Z,4.29
2018-12-21T12:21:54.320Z,4.61
2018-12-21T12:24:25.654Z,5.27
2018-12-21T12:26:53.196Z,6.02
2018-12-21T12:29:20.710Z,7.75
2018-12-21T12:31:48.362Z,8.90
2018-12-21T12:34:15.927Z,8.55
2018-12-21T12:36:43.915Z,7.92
2018-12-21T12:39:11.464Z,7.58
2018-12-21T12:41:38.980Z,6.98
2018-12-21T12:44:06.540Z,6.58
2018-12-21T12:46:34.860Z,7.18
2018-12-21T12:49:02.416Z,8.02
2018-12-21T12:51:29.918Z,8.67
2018-12-21T12:53:57.475Z,10.02
2018-12-21T12:56:25.003Z,10.94
2018-12-21T12:58:53.478Z,11.34
2018-12-21T13:01:21.988Z,11.54
2018-12-21T13:03:49.517Z,12.48
2018-12-21T13:06:17.081Z,11.61
2018-12-21T13:08:45.673Z,11.16
2018-12-21T13:11:15.862Z,11.22
2018-12-21T13:13:43.447Z,11.01
2018-12-21T13:16:10.965Z,10.55
2018-12-21T13:18:39.181Z,11.29
2018-12-21T13:21:06.699Z,11.45
2018-12-21T13:23:34.247Z,10.47
2018-12-21T13:26:02.691Z,9.68
2018-12-21T13:28:30.246Z,9.76
2018-12-21T13:30:58.783Z,9.77
2018-12-21T13:33:27.308Z,9.05
2018-12-21T13:35:54.828Z,8.35
2018-12-21T13:38:22.375Z,9.15
2018-12-21T13:40:49.888Z,8.09
2018-12-21T13:43:19.077Z,7.10
2018-12-21T13:45:46.616Z,6.44
2018-12-21T13:48:14.139Z,5.48
2018-12-21T13:50:41.693Z,5.84
2018-12-21T13:53:09.194Z,5.60
2018-12-21T13:55:36.766Z,5.03
2018-12-21T13:58:04.283Z,4.72
2018-12-21T14:00:31.800Z,4.74
2018-12-21T14:02:59.351Z,4.71
2018-12-21T14:05:26.884Z,4.32
2018-12-21T14:07:54.442Z,3.72
2018-12-21T14:10:21.978Z,3.64
2018-12-21T14:12:49.535Z,3.19
2018-12-21T14:15:18.352Z,3.21
2018-12-21T14:17:45.868Z,3.03
2018-12-21T14:20:13.446Z,2.95
2018-12-21T14:22:42.629Z,2.80
2018-12-21T14:25:10.194Z,2.72
2018-12-21T14:27:37.733Z,2.76
2018-12-21T14:30:07.634Z,2.78
2018-12-21T14:32:35.167Z,2.53
2018-12-21T14:35:02.709Z,2.27
2018-12-21T14:37:30.245Z,2.29
2018-12-21T14:39:57.811Z,2.09
2018-12-21T14:42:25.328Z,1.98
2018-12-21T14:44:52.989Z,1.92
2018-12-21T14:47:20.533Z,1.87
2018-12-21T14:49:48.079Z,1.73
2018-12-21T14:52:15.608Z,1.61
2018-12-21T14:54:43.162Z,1.68
2018-12-21T14:57:10.758Z,1.79
2018-12-21T14:59:38.271Z,1.76
2018-12-21T15:02:06.000Z,1.87
2018-12-21T15:04:33.587Z,1.81
2018-12-21T15:07:01.195Z,1.74
2018-12-21T15:09:28.743Z,1.57
2018-12-21T15:11:56.309Z,1.58
2018-12-21T15:14:23.832Z,1.61
2018-12-21T15:16:51.612Z,1.50
2018-12-21T15:19:19.130Z,1.47
2018-12-21T15:21:46.712Z,1.36
2018-12-21T15:24:14.240Z,1.56
2018-12-21T15:26:41.810Z,1.39
2018-12-21T15:29:09.375Z,1.21
2018-12-21T15:31:36.905Z,1.12
2018-12-21T15:34:04.484Z,1.25
2018-12-21T15:36:32.013Z,1.50
2018-12-21T15:38:59.601Z,1.38
2018-12-21T15:41:27.981Z,1.45
2018-12-21T15:43:55.567Z,1.42
2018-12-21T15:46:23.976Z,1.29
2018-12-21T15:48:51.523Z,1.37
2018-12-21T15:51:19.064Z,1.25
2018-12-21T15:53:46.655Z,1.34
2018-12-21T15:56:14.267Z,1.34
2018-12-21T15:58:42.781Z,1.29
2018-12-21T16:01:13.591Z,1.35
2018-12-21T16:03:41.139Z,1.33
2018-12-21T16:06:08.688Z,1.25
2018-12-21T16:08:38.048Z,1.27
2018-12-21T16:11:05.582Z,1.26
2018-12-21T16:13:34.078Z,1.22
2018-12-21T16:16:01.726Z,1.25
2018-12-21T16:18:29.309Z,1.25
2018-12-21T16:20:58.331Z,1.32
2018-12-21T16:23:25.873Z,1.37
2018-12-21T16:25:53.417Z,1.31
2018-12-21T16:28:20.968Z,1.25
2018-12-21T16:30:48.554Z,1.16
2018-12-21T16:33:16.139Z,1.19
2018-12-21T16:35:44.625Z,1.27
2018-12-21T16:38:12.271Z,1.38
2018-12-21T16:40:40.726Z,1.45
2018-12-21T16:43:08.248Z,1.41
2018-12-21T16:45:36.913Z,1.37
2018-12-21T16:48:04.444Z,1.22
2018-12-21T16:50:32.873Z,1.18
2018-12-21T16:53:01.473Z,1.14
2018-12-21T16:55:29.034Z,1.26
2018-12-21T16:57:56.559Z,1.21
2018-12-21T17:00:25.982Z,1.35
2018-12-21T17:02:53.533Z,1.43
2018-12-21T17:05:21.105Z,1.36
2018-12-21T17:07:49.692Z,1.45
2018-12-21T17:10:18.774Z,1.36
2018-12-21T17:12:46.857Z,1.24
2018-12-21T17:15:14.393Z,1.40
2018-12-21T17:17:41.993Z,1.53
2018-12-21T17:20:10.363Z,1.44
2018-12-21T17:22:39.649Z,1.36
2018-12-21T17:25:08.110Z,1.17
2018-12-21T17:27:35.768Z,1.24
2018-12-21T17:30:07.767Z,1.36
2018-12-21T17:32:35.307Z,1.55
2018-12-21T17:35:06.705Z,1.33
2018-12-21T17:37:34.449Z,1.19
2018-12-21T17:40:02.050Z,1.24
2018-12-21T17:42:29.693Z,1.27
2018-12-21T17:44:58.351Z,1.27
2018-12-21T17:47:25.956Z,1.24
2018-12-21T17:49:54.484Z,1.25
2018-12-21T17:52:23.052Z,1.17
2018-12-21T17:54:50.642Z,1.22
2018-12-21T17:57:18.187Z,1.18
2018-12-21T17:59:45.906Z,1.22
2018-12-21T18:02:15.395Z,1.15
2018-12-21T18:04:42.951Z,0.97
2018-12-21T18:07:12.402Z,1.11
2018-12-21T18:09:40.025Z,1.12
2018-12-21T18:12:07.836Z,1.16
2018-12-21T18:14:36.923Z,1.12
2018-12-21T18:17:05.554Z,1.26
2018-12-21T18:19:34.030Z,1.15
2018-12-21T18:22:05.074Z,1.16
2018-12-21T18:24:32.641Z,1.28
2018-12-21T18:27:01.214Z,1.04
2018-12-21T18:29:28.882Z,1.04
2018-12-21T18:31:57.803Z,1.02
2018-12-21T18:34:28.982Z,1.18
2018-12-21T18:36:56.515Z,1.28
2018-12-21T18:39:25.223Z,1.27
2018-12-21T18:41:52.752Z,1.28
2018-12-21T18:44:20.301Z,1.30
2018-12-21T18:46:48.857Z,1.50
2018-12-21T18:49:16.391Z,1.47
2018-12-21T18:51:43.915Z,1.46
2018-12-21T18:54:13.280Z,1.28
2018-12-21T18:56:47.370Z,1.36
2018-12-21T18:59:15.419Z,1.27
2018-12-21T19:01:44.834Z,1.33
2018-12-21T19:04:12.411Z,1.42
2018-12-21T19:06:39.985Z,1.35
2018-12-21T19:09:08.896Z,1.23
2018-12-21T19:11:37.166Z,1.20
2018-12-21T19:14:04.732Z,1.06
2018-12-21T19:16:34.099Z,0.97
2018-12-21T19:19:01.637Z,0.98
2018-12-21T19:21:35.797Z,1.05
2018-12-21T19:24:05.384Z,0.98
2018-12-21T19:26:32.998Z,1.00
2018-12-21T19:29:00.765Z,1.05
2018-12-21T19:31:29.785Z,1.10
2018-12-21T19:33:57.329Z,1.15
2018-12-21T19:36:25.836Z,1.21
2018-12-21T19:38:54.683Z,1.15
2018-12-21T19:41:22.241Z,1.07
2018-12-21T19:43:49.828Z,0.97
2018-12-21T19:46:21.045Z,1.02
2018-12-21T19:48:48.642Z,1.03
2018-12-21T19:51:16.183Z,1.03
2018-12-21T19:53:44.841Z,1.15
2018-12-21T19:56:13.607Z,1.12
2018-12-21T19:58:48.642Z,1.03
2018-12-21T20:01:16.184Z,1.13
2018-12-21T20:03:43.746Z,1.22
2018-12-21T20:06:12.542Z,1.09
2018-12-21T20:08:40.077Z,1.08
2018-12-21T20:11:08.805Z,1.23
2018-12-21T20:13:38.211Z,1.27
2018-12-21T20:16:05.846Z,1.38
2018-12-21T20:18:34.212Z,1.27
2018-12-21T20:21:02.734Z,1.12
2018-12-21T20:23:30.303Z,1.25
2018-12-21T20:25:57.846Z,1.36
2018-12-21T20:28:27.961Z,1.21
2018-12-21T20:30:55.524Z,1.14
2018-12-21T20:33:23.920Z,1.10
2018-12-21T20:35:53.384Z,1.23
2018-12-21T20:38:21.559Z,1.12
2018-12-21T20:40:49.495Z,1.20
2018-12-21T20:43:17.068Z,1.15
2018-12-21T20:45:46.640Z,1.13
2018-12-21T20:48:14.198Z,1.07
2018-12-21T20:50:42.605Z,1.11
2018-12-21T20:53:11.617Z,1.03
2018-12-21T20:55:41.997Z,1.12
2018-12-21T20:58:10.650Z,1.09
2018-12-21T21:00:40.227Z,1.04
2018-12-21T21:03:07.775Z,1.05
2018-12-21T21:11:50.313Z,0.68
2018-12-21T21:17:38.364Z,0.73
2018-12-21T21:23:22.068Z,0.52
2018-12-21T21:29:13.448Z,0.52
2018-12-21T21:35:01.335Z,0.71
2018-12-21T21:40:40.957Z,0.65
2018-12-21T21:46:19.025Z,0.61
2018-12-21T21:52:04.477Z,0.53
2018-12-21T21:57:47.692Z,0.55
2018-12-21T22:03:35.382Z,0.46
2018-12-21T22:09:19.205Z,0.27
2018-12-21T22:14:55.881Z,0.27
2018-12-21T22:20:38.852Z,0.39
2018-12-21T22:26:19.803Z,0.21
2018-12-21T22:32:08.805Z,0.45
2018-12-21T22:37:49.612Z,0.31
2018-12-21T22:43:26.287Z,0.45
2018-12-21T22:49:10.971Z,0.48
2018-12-21T22:55:01.720Z,0.53
2018-12-21T23:00:38.268Z,0.68
2018-12-21T23:06:15.142Z,0.55
2018-12-21T23:11:56.472Z,0.66
2018-12-21T23:17:37.445Z,0.43
2018-12-21T23:23:13.903Z,0.54
2018-12-21T23:28:48.782Z,0.69
2018-12-21T23:34:31.223Z,0.45
2018-12-21T23:40:11.638Z,0.25
2018-12-21T23:46:08.519Z,0.22
2018-12-21T23:51:51.958Z,0.24
2018-12-21T23:57:32.910Z,0.37
